Time;durP1;ratioP1;P1;durP2;ratioP2;P2;SDS_P1;SDS_P2;PMS_P1;PMS_P2;Temp;Humidity;BMP_temperature;BMP_pressure;BME280_temperature;BME280_humidity;BME280_pressure;Samples;Min_cycle;Max_cycle;Signal;HPM_P1;HPM_P2
2022/06/30 00:01:08;;;;;;;1.40;1.40;;;23.60;69.90;;;;;;5068263;28;43888;-69
2022/06/30 00:03:36;;;;;;;1.40;1.40;;;23.40;70.10;;;;;;5068587;28;43956;-69
2022/06/30 00:06:04;;;;;;;1.47;1.47;;;23.40;70.50;;;;;;5050086;28;45323;-71
2022/06/30 00:08:33;;;;;;;1.50;1.50;;;23.30;70.70;;;;;;5068901;28;44007;-69
2022/06/30 00:11:06;;;;;;;1.50;1.50;;;23.20;70.80;;;;;;5069183;28;43910;-70
2022/06/30 00:13:34;;;;;;;1.40;1.40;;;23.10;71.00;;;;;;5068489;28;43903;-70
2022/06/30 00:16:03;;;;;;;1.40;1.40;;;23.10;71.20;;;;;;5068407;28;43997;-69
2022/06/30 00:18:31;;;;;;;1.40;1.40;;;23.10;71.40;;;;;;5068654;28;43981;-70
2022/06/30 00:20:59;;;;;;;1.40;1.40;;;23.00;71.30;;;;;;5068865;28;43952;-70
2022/06/30 00:23:27;;;;;;;1.50;1.50;;;23.00;71.40;;;;;;5068178;28;43964;-69
2022/06/30 00:25:56;;;;;;;1.40;1.40;;;23.00;71.40;;;;;;5049975;28;45033;-69
2022/06/30 00:28:24;;;;;;;1.50;1.50;;;23.00;71.50;;;;;;5068365;28;43952;-70
2022/06/30 00:30:52;;;;;;;1.40;1.40;;;23.00;71.70;;;;;;5068836;28;44008;-69
2022/06/30 00:33:20;;;;;;;1.40;1.40;;;23.00;72.40;;;;;;5068011;28;44801;-69
2022/06/30 00:35:49;;;;;;;1.60;1.60;;;23.00;72.40;;;;;;5067970;28;43318;-70
2022/06/30 00:38:16;;;;;;;1.80;1.80;;;23.10;72.20;;;;;;5068127;28;43941;-69
2022/06/30 00:40:45;;;;;;;1.40;1.40;;;23.20;71.90;;;;;;5068400;28;44055;-69
2022/06/30 00:43:14;;;;;;;1.47;1.47;;;23.30;71.40;;;;;;5067918;28;43937;-70
2022/06/30 00:45:42;;;;;;;1.37;1.37;;;23.50;70.90;;;;;;5068144;28;44165;-70
2022/06/30 00:48:11;;;;;;;1.60;1.60;;;23.60;70.40;;;;;;5068158;28;43477;-70
2022/06/30 00:50:39;;;;;;;1.47;1.40;;;23.80;70.00;;;;;;5036633;28;44295;-70
2022/06/30 00:53:07;;;;;;;1.60;1.60;;;23.90;69.50;;;;;;5067734;28;43928;-70
2022/06/30 00:55:36;;;;;;;1.30;1.30;;;24.00;69.00;;;;;;5067746;28;44269;-69
2022/06/30 00:58:05;;;;;;;1.33;1.33;;;24.10;68.70;;;;;;5067745;28;43976;-69
2022/06/30 01:00:39;;;;;;;1.13;1.13;;;24.20;68.60;;;;;;5068808;28;43871;-71
2022/06/30 01:03:07;;;;;;;1.23;1.23;;;24.30;68.10;;;;;;5069648;28;43909;-70
2022/06/30 01:05:35;;;;;;;1.40;1.40;;;24.30;68.10;;;;;;5051304;28;44582;-71
2022/06/30 01:08:03;;;;;;;1.50;1.50;;;24.10;68.30;;;;;;5070348;28;43956;-71
2022/06/30 01:13:17;;;;;;;1.33;1.33;;;23.80;69.20;;;;;;5061593;28;44052;-70
2022/06/30 01:15:46;;;;;;;1.30;1.30;;;23.60;69.70;;;;;;5069699;28;43944;-71
2022/06/30 01:18:14;;;;;;;1.37;1.37;;;23.50;70.10;;;;;;5063249;28;43939;-70
2022/06/30 01:20:43;;;;;;;1.33;1.33;;;23.40;70.30;;;;;;5070039;28;43926;-70
2022/06/30 01:23:12;;;;;;;1.40;1.40;;;23.30;70.50;;;;;;5044492;28;46024;-70
2022/06/30 01:25:40;;;;;;;1.30;1.30;;;23.20;70.70;;;;;;5063167;28;43987;-71
2022/06/30 01:28:08;;;;;;;1.30;1.30;;;23.20;71.00;;;;;;5069413;28;43893;-71
2022/06/30 01:30:36;;;;;;;1.57;1.57;;;23.10;71.10;;;;;;5069887;28;43948;-71
2022/06/30 01:33:04;;;;;;;1.40;1.40;;;23.10;71.20;;;;;;5069063;28;43868;-70
2022/06/30 01:35:32;;;;;;;1.30;1.30;;;23.10;71.40;;;;;;5069423;28;43951;-70
2022/06/30 01:38:00;;;;;;;1.40;1.40;;;23.10;71.40;;;;;;5069492;28;43377;-70
2022/06/30 01:40:30;;;;;;;1.50;1.50;;;23.00;71.40;;;;;;5037790;28;43999;-70
2022/06/30 01:42:58;;;;;;;1.50;1.50;;;23.00;72.20;;;;;;5069155;28;44628;-71
2022/06/30 01:45:26;;;;;;;1.50;1.50;;;23.00;71.50;;;;;;5050643;28;45218;-70
2022/06/30 01:47:55;;;;;;;1.43;1.43;;;23.00;71.50;;;;;;5068900;28;43436;-70
2022/06/30 01:50:24;;;;;;;1.33;1.33;;;23.00;71.60;;;;;;5069452;28;43984;-71
2022/06/30 01:52:52;;;;;;;1.50;1.50;;;23.00;72.30;;;;;;5050626;28;45798;-71
2022/06/30 01:55:20;;;;;;;1.33;1.33;;;23.00;72.40;;;;;;5069131;28;43881;-71
2022/06/30 01:57:50;;;;;;;1.60;1.60;;;23.10;72.40;;;;;;5069389;28;43987;-70
2022/06/30 02:00:20;;;;;;;1.47;1.47;;;23.20;71.90;;;;;;5069633;28;43420;-70
2022/06/30 02:02:48;;;;;;;1.50;1.50;;;23.40;71.40;;;;;;5069006;28;43940;-72
2022/06/30 02:05:16;;;;;;;1.50;1.40;;;23.50;70.90;;;;;;5069169;28;43900;-71
2022/06/30 02:07:45;;;;;;;1.30;1.30;;;23.70;70.40;;;;;;5050879;28;43915;-70
2022/06/30 02:10:14;;;;;;;1.57;1.57;;;23.80;69.80;;;;;;5051051;28;43730;-71
2022/06/30 02:12:48;;;;;;;1.40;1.40;;;23.90;69.40;;;;;;5069234;28;44043;-72
2022/06/30 02:15:20;;;;;;;1.30;1.30;;;24.10;69.00;;;;;;5069147;28;43893;-71
2022/06/30 02:17:48;;;;;;;1.30;1.30;;;24.20;69.10;;;;;;5069523;28;43924;-71
2022/06/30 02:20:21;;;;;;;1.40;1.40;;;24.20;68.40;;;;;;5069292;28;44134;-71
2022/06/30 02:22:50;;;;;;;1.20;1.20;;;24.10;68.30;;;;;;5050075;28;46809;-70
2022/06/30 02:25:17;;;;;;;1.43;1.43;;;24.00;68.60;;;;;;5072486;28;44103;-70
2022/06/30 02:27:45;;;;;;;1.37;1.37;;;23.80;69.00;;;;;;5072546;28;43960;-70
2022/06/30 02:30:14;;;;;;;1.40;1.40;;;23.70;70.20;;;;;;5054099;28;44107;-71
2022/06/30 02:32:43;;;;;;;1.33;1.33;;;23.50;69.90;;;;;;5072115;28;43984;-72
2022/06/30 02:35:11;;;;;;;1.37;1.37;;;23.40;70.20;;;;;;5053953;28;44425;-71
2022/06/30 02:37:39;;;;;;;1.40;1.40;;;23.30;70.40;;;;;;5072040;28;44037;-70
2022/06/30 02:40:08;;;;;;;1.50;1.50;;;23.30;70.80;;;;;;5053792;28;44021;-70
2022/06/30 02:42:37;;;;;;;1.57;1.57;;;23.20;70.90;;;;;;5071810;28;44797;-71
2022/06/30 02:45:06;;;;;;;1.40;1.40;;;23.10;71.00;;;;;;5071948;28;43462;-70
2022/06/30 02:47:34;;;;;;;1.30;1.30;;;23.10;71.20;;;;;;5072160;28;44032;-70
2022/06/30 02:50:05;;;;;;;1.43;1.43;;;23.00;71.30;;;;;;5072594;28;43914;-71
2022/06/30 02:52:32;;;;;;;1.47;1.47;;;23.00;71.30;;;;;;5071498;28;43960;-71
2022/06/30 02:55:00;;;;;;;1.43;1.43;;;23.00;71.30;;;;;;5072155;28;43971;-71
2022/06/30 02:57:29;;;;;;;1.60;1.60;;;23.00;71.60;;;;;;5053880;28;44042;-71
2022/06/30 02:59:57;;;;;;;1.50;1.50;;;23.00;72.40;;;;;;5072220;28;43969;-72
2022/06/30 03:02:25;;;;;;;1.60;1.60;;;23.00;72.40;;;;;;5071216;28;43596;-71
2022/06/30 03:04:53;;;;;;;1.40;1.40;;;23.10;72.20;;;;;;5071494;28;43680;-71
2022/06/30 03:07:22;;;;;;;1.77;1.77;;;23.20;71.80;;;;;;5072189;28;43854;-71
2022/06/30 03:09:50;;;;;;;1.53;1.53;;;23.30;71.40;;;;;;5072054;28;43804;-70
2022/06/30 03:12:18;;;;;;;1.73;1.73;;;23.50;70.90;;;;;;5053216;28;45975;-70
2022/06/30 03:14:47;;;;;;;1.30;1.30;;;23.60;70.30;;;;;;5071877;28;43392;-70
2022/06/30 03:17:15;;;;;;;1.60;1.60;;;23.80;69.90;;;;;;5072207;28;43975;-71
2022/06/30 03:19:43;;;;;;;1.60;1.60;;;23.90;69.40;;;;;;5053673;28;44199;-70
2022/06/30 03:22:11;;;;;;;1.40;1.40;;;24.00;68.90;;;;;;5071508;28;43960;-71
2022/06/30 03:24:40;;;;;;;1.40;1.40;;;24.10;68.50;;;;;;5071419;28;44015;-70
2022/06/30 03:27:08;;;;;;;1.60;1.60;;;24.30;68.40;;;;;;5071833;28;43877;-71
2022/06/30 03:29:36;;;;;;;1.40;1.40;;;24.30;68.00;;;;;;5072178;28;43941;-70
2022/06/30 03:32:05;;;;;;;1.67;1.67;;;24.40;67.80;;;;;;5070916;28;44031;-70
2022/06/30 03:34:33;;;;;;;1.50;1.50;;;24.30;67.80;;;;;;5070856;28;43901;-70
2022/06/30 03:37:01;;;;;;;1.50;1.50;;;24.10;68.30;;;;;;5071668;28;43949;-71
2022/06/30 03:39:29;;;;;;;1.70;1.70;;;23.90;68.70;;;;;;5053156;28;43981;-71
2022/06/30 03:41:58;;;;;;;1.60;1.60;;;23.70;69.20;;;;;;5053212;28;45737;-71
2022/06/30 03:44:26;;;;;;;1.70;1.70;;;23.60;69.70;;;;;;5070707;28;43869;-69
2022/06/30 03:46:55;;;;;;;1.50;1.50;;;23.50;70.00;;;;;;5071232;28;44022;-70
2022/06/30 03:49:24;;;;;;;1.70;1.60;;;23.30;70.30;;;;;;5052454;28;43614;-70
2022/06/30 03:51:52;;;;;;;1.50;1.50;;;23.30;70.60;;;;;;5070298;28;44720;-69
2022/06/30 03:54:20;;;;;;;1.73;1.73;;;23.20;70.90;;;;;;5071079;28;43429;-71
2022/06/30 03:56:49;;;;;;;1.70;1.70;;;23.10;71.00;;;;;;5070642;28;43389;-71
2022/06/30 03:59:18;;;;;;;1.60;1.60;;;23.10;71.20;;;;;;5071396;28;44115;-71
2022/06/30 04:01:46;;;;;;;1.50;1.50;;;23.10;71.40;;;;;;5070061;28;43932;-71
2022/06/30 04:04:14;;;;;;;1.80;1.80;;;23.10;71.40;;;;;;5070230;28;43365;-71
2022/06/30 04:06:42;;;;;;;1.70;1.70;;;23.00;71.40;;;;;;5064461;28;43954;-71
2022/06/30 04:09:10;;;;;;;1.50;1.50;;;23.00;71.50;;;;;;5071036;28;43340;-71
2022/06/30 04:11:38;;;;;;;1.83;1.83;;;23.00;71.60;;;;;;5069938;28;43779;-71
2022/06/30 04:14:06;;;;;;;1.60;1.60;;;23.00;71.70;;;;;;5070317;28;43349;-69
2022/06/30 04:16:36;;;;;;;1.83;1.83;;;23.00;71.70;;;;;;5063783;28;43384;-71
2022/06/30 04:19:04;;;;;;;1.57;1.57;;;23.00;71.60;;;;;;5065001;28;44003;-69
2022/06/30 04:21:32;;;;;;;1.67;1.67;;;23.00;72.40;;;;;;5064070;28;43929;-70
2022/06/30 04:24:00;;;;;;;1.73;1.73;;;23.00;72.50;;;;;;5042427;28;44880;-72
2022/06/30 04:26:28;;;;;;;1.77;1.77;;;23.10;72.40;;;;;;5046048;28;43905;-71
2022/06/30 04:28:56;;;;;;;2.00;2.00;;;23.20;71.90;;;;;;5064637;28;44243;-70
2022/06/30 04:34:11;;;;;;;1.90;1.90;;;23.50;71.00;;;;;;5066485;28;43964;-70
2022/06/30 04:36:39;;;;;;;1.63;1.57;;;23.60;70.40;;;;;;5070630;28;43742;-71
2022/06/30 04:39:07;;;;;;;1.70;1.70;;;23.80;69.90;;;;;;5071413;28;43945;-70
2022/06/30 04:41:36;;;;;;;2.00;1.90;;;23.90;69.50;;;;;;5069922;28;43961;-71
2022/06/30 04:44:05;;;;;;;1.80;1.80;;;24.00;69.10;;;;;;5070531;28;43890;-70
2022/06/30 04:46:33;;;;;;;1.90;1.90;;;24.10;68.60;;;;;;5070936;28;43941;-69
2022/06/30 04:49:01;;;;;;;1.90;1.80;;;24.10;68.40;;;;;;5071345;28;43549;-70
2022/06/30 04:51:30;;;;;;;2.20;2.10;;;24.10;69.30;;;;;;5070283;28;43825;-70
2022/06/30 04:53:58;;;;;;;1.80;1.80;;;24.00;68.80;;;;;;5070127;28;44037;-70
2022/06/30 04:56:26;;;;;;;2.30;2.17;;;23.80;68.80;;;;;;5070233;28;43885;-71
2022/06/30 04:58:54;;;;;;;2.50;2.40;;;23.60;69.40;;;;;;5070545;28;43999;-70
2022/06/30 05:01:22;;;;;;;2.00;2.00;;;23.50;69.50;;;;;;5070134;28;43973;-71
2022/06/30 05:03:50;;;;;;;2.50;2.40;;;23.40;69.80;;;;;;5070018;28;44004;-70
2022/06/30 05:06:18;;;;;;;2.00;2.00;;;23.30;70.10;;;;;;5051573;28;43836;-70
2022/06/30 05:08:49;;;;;;;2.13;2.10;;;23.20;70.30;;;;;;5070484;28;43501;-71
2022/06/30 05:11:17;;;;;;;2.20;2.20;;;23.20;70.50;;;;;;5069549;28;43845;-71
2022/06/30 05:13:45;;;;;;;2.13;2.03;;;23.10;70.60;;;;;;5069743;28;43313;-72
2022/06/30 05:16:13;;;;;;;2.30;2.20;;;23.10;70.80;;;;;;5069810;28;43408;-70
2022/06/30 05:18:41;;;;;;;2.03;1.97;;;23.10;71.00;;;;;;5070023;28;43407;-70
2022/06/30 05:21:09;;;;;;;1.90;1.90;;;23.00;71.10;;;;;;5069427;28;43959;-70
2022/06/30 05:23:37;;;;;;;2.03;2.00;;;23.00;71.10;;;;;;5069443;28;43356;-71
2022/06/30 05:28:52;;;;;;;2.13;2.07;;;23.00;72.10;;;;;;5070017;28;43929;-71
2022/06/30 05:31:21;;;;;;;2.33;2.33;;;23.10;72.00;;;;;;5069335;28;44350;-71
2022/06/30 05:33:49;;;;;;;2.27;2.17;;;23.20;71.70;;;;;;5069447;28;44062;-71
2022/06/30 05:36:17;;;;;;;1.93;1.93;;;23.30;71.50;;;;;;5069864;28;43771;-70
2022/06/30 05:38:45;;;;;;;2.00;2.00;;;23.40;71.00;;;;;;5070060;28;43893;-71
2022/06/30 05:41:14;;;;;;;2.00;2.00;;;23.50;70.30;;;;;;5068858;28;43973;-70
2022/06/30 05:43:45;;;;;;;2.30;2.20;;;23.70;69.80;;;;;;5063371;28;43877;-70
2022/06/30 05:46:13;;;;;;;2.03;2.03;;;23.80;69.30;;;;;;5063953;28;43924;-70
2022/06/30 05:48:41;;;;;;;2.10;2.00;;;24.00;69.00;;;;;;5070486;28;43939;-70
2022/06/30 05:51:13;;;;;;;2.30;2.20;;;24.10;68.50;;;;;;5069736;28;43969;-71
2022/06/30 05:53:41;;;;;;;2.43;2.33;;;24.20;68.20;;;;;;5050964;28;44939;-71
2022/06/30 05:56:09;;;;;;;2.33;2.17;;;24.30;67.90;;;;;;5069950;28;43323;-70
2022/06/30 05:58:38;;;;;;;2.30;2.30;;;24.30;67.60;;;;;;5069116;28;44251;-71
2022/06/30 06:01:06;;;;;;;2.07;2.07;;;24.20;67.70;;;;;;5069498;28;43976;-71
2022/06/30 06:03:34;;;;;;;1.97;1.97;;;24.10;68.00;;;;;;5014989;28;43963;-71
2022/06/30 06:06:02;;;;;;;2.30;2.20;;;23.90;68.40;;;;;;5017635;28;43838;-70
2022/06/30 06:08:30;;;;;;;2.20;2.20;;;23.70;68.80;;;;;;5029522;28;43930;-70
2022/06/30 06:10:58;;;;;;;2.00;2.00;;;23.60;69.40;;;;;;5015399;28;44999;-71
2022/06/30 06:13:26;;;;;;;2.20;2.20;;;23.50;69.60;;;;;;5009000;28;43873;-70
2022/06/30 06:15:56;;;;;;;1.87;1.87;;;23.40;70.00;;;;;;5009615;28;43986;-70
2022/06/30 06:18:24;;;;;;;2.13;2.07;;;23.30;70.30;;;;;;5010172;28;43588;-72
2022/06/30 06:20:52;;;;;;;2.10;2.10;;;23.20;70.50;;;;;;5024053;28;46110;-71
2022/06/30 06:23:40;;;;;;;2.13;2.10;;;23.10;70.70;;;;;;5019508;28;43870;-71
2022/06/30 06:26:08;;;;;;;2.27;2.27;;;23.10;70.90;;;;;;5021951;28;43437;-70
2022/06/30 06:31:23;;;;;;;2.10;2.10;;;23.00;71.10;;;;;;5020228;28;44059;-71
2022/06/30 06:33:51;;;;;;;1.90;1.90;;;23.00;71.30;;;;;;5021574;28;43464;-71
2022/06/30 06:36:22;;;;;;;1.87;1.87;;;23.00;71.30;;;;;;5021390;28;44310;-72
2022/06/30 06:38:51;;;;;;;2.00;2.00;;;23.00;71.40;;;;;;5028467;28;44109;-71
2022/06/30 06:41:20;;;;;;;1.93;1.93;;;22.90;71.40;;;;;;5029719;28;46627;-70
2022/06/30 06:43:48;;;;;;;1.90;1.90;;;22.90;71.50;;;;;;5021918;28;44041;-71
2022/06/30 06:46:16;;;;;;;2.20;2.20;;;22.90;71.50;;;;;;5028176;28;44184;-70
2022/06/30 06:48:46;;;;;;;1.97;1.97;;;22.90;71.60;;;;;;5014986;28;43880;-70
2022/06/30 06:51:14;;;;;;;1.90;1.90;;;22.90;72.20;;;;;;5007287;28;44915;-71
2022/06/30 06:53:42;;;;;;;2.00;2.00;;;23.00;72.50;;;;;;5007606;28;44718;-70
2022/06/30 06:56:10;;;;;;;2.10;2.10;;;23.10;72.20;;;;;;5030435;28;43967;-72
2022/06/30 06:58:38;;;;;;;2.00;2.00;;;23.20;71.70;;;;;;5016922;28;43422;-72
2022/06/30 07:01:06;;;;;;;2.10;2.10;;;23.30;71.20;;;;;;5028080;28;43936;-70
2022/06/30 07:03:34;;;;;;;2.20;2.10;;;23.50;70.90;;;;;;5028119;28;44050;-70
2022/06/30 07:06:04;;;;;;;1.87;1.87;;;23.60;70.40;;;;;;5028434;28;43995;-70
2022/06/30 07:08:32;;;;;;;1.80;1.80;;;23.70;69.90;;;;;;5029259;28;43384;-71
2022/06/30 07:11:00;;;;;;;1.87;1.87;;;23.90;69.60;;;;;;5030064;28;43741;-71
2022/06/30 07:13:28;;;;;;;2.00;2.00;;;24.00;69.20;;;;;;5030563;28;44544;-70
2022/06/30 07:15:56;;;;;;;1.90;1.90;;;24.10;69.60;;;;;;5031970;28;44117;-71
2022/06/30 07:18:24;;;;;;;2.10;2.10;;;24.10;68.60;;;;;;5032075;28;43914;-71
2022/06/30 07:20:53;;;;;;;2.10;2.10;;;24.00;68.60;;;;;;5029930;28;45426;-71
2022/06/30 07:23:22;;;;;;;2.03;2.03;;;23.90;68.90;;;;;;5031274;28;43695;-70
2022/06/30 07:25:58;;;;;;;1.90;1.90;;;23.70;69.40;;;;;;5031472;28;43999;-70
2022/06/30 07:28:26;;;;;;;2.10;2.10;;;23.60;69.80;;;;;;5030209;28;43850;-70
2022/06/30 07:31:15;;;;;;;1.83;1.83;;;23.40;70.10;;;;;;5031536;28;43953;-71
2022/06/30 07:33:44;;;;;;;2.00;2.00;;;23.30;70.40;;;;;;5031309;28;43855;-70
2022/06/30 07:36:12;;;;;;;1.90;1.90;;;23.20;70.70;;;;;;5031101;28;44087;-71
2022/06/30 07:38:43;;;;;;;1.90;1.90;;;23.20;71.00;;;;;;5030145;28;43874;-70
2022/06/30 07:41:10;;;;;;;2.37;2.27;;;23.10;71.20;;;;;;5030728;28;44103;-71
2022/06/30 07:43:39;;;;;;;2.10;2.00;;;23.10;71.40;;;;;;5030820;28;44032;-71
2022/06/30 07:46:07;;;;;;;1.80;1.80;;;23.00;71.40;;;;;;5030544;28;43983;-70
2022/06/30 07:48:36;;;;;;;2.00;2.00;;;23.00;71.60;;;;;;5029667;28;44291;-70
2022/06/30 07:51:04;;;;;;;2.03;2.03;;;23.00;71.70;;;;;;5030600;28;44267;-70
2022/06/30 07:53:32;;;;;;;2.00;2.00;;;22.90;71.60;;;;;;5028914;28;45013;-70
2022/06/30 07:56:01;;;;;;;2.17;2.17;;;22.90;72.30;;;;;;5030613;28;43843;-71
2022/06/30 07:58:29;;;;;;;1.90;1.90;;;22.90;72.60;;;;;;5031754;28;43319;-71
2022/06/30 08:00:57;;;;;;;1.80;1.80;;;23.00;72.50;;;;;;5030798;28;44005;-71
2022/06/30 08:03:25;;;;;;;1.80;1.80;;;23.10;72.30;;;;;;5068885;28;43806;-71
2022/06/30 08:05:53;;;;;;;1.93;1.93;;;23.20;72.70;;;;;;5052687;28;43850;-70
2022/06/30 08:08:21;;;;;;;2.00;1.90;;;23.30;71.50;;;;;;5071540;28;44041;-70
2022/06/30 08:10:49;;;;;;;2.00;2.00;;;23.50;71.00;;;;;;5070931;28;43983;-70
2022/06/30 08:13:18;;;;;;;1.93;1.93;;;23.60;70.60;;;;;;5071048;28;43857;-70
2022/06/30 08:15:46;;;;;;;1.73;1.73;;;23.70;70.20;;;;;;5064594;28;43507;-70
2022/06/30 08:18:14;;;;;;;1.70;1.70;;;23.80;69.80;;;;;;5064709;28;43926;-70
2022/06/30 08:20:43;;;;;;;1.73;1.73;;;23.90;69.40;;;;;;5063447;28;43900;-70
2022/06/30 08:23:11;;;;;;;1.80;1.80;;;24.00;69.00;;;;;;5064274;28;43959;-70
2022/06/30 08:25:38;;;;;;;1.80;1.80;;;24.10;68.70;;;;;;5064147;28;43973;-71
2022/06/30 08:28:08;;;;;;;1.77;1.77;;;24.20;68.40;;;;;;5064097;28;43429;-71
2022/06/30 08:30:37;;;;;;;1.70;1.70;;;24.20;68.30;;;;;;5064315;28;43912;-70
2022/06/30 08:33:05;;;;;;;1.83;1.83;;;24.10;68.70;;;;;;5064260;28;43906;-69
2022/06/30 08:35:33;;;;;;;1.83;1.83;;;23.90;69.10;;;;;;5070641;28;43891;-71
2022/06/30 08:38:21;;;;;;;1.80;1.80;;;23.70;69.50;;;;;;5070937;28;44134;-70
2022/06/30 08:43:35;;;;;;;2.00;1.90;;;23.40;70.30;;;;;;5070048;28;44158;-70
2022/06/30 08:46:05;;;;;;;1.60;1.60;;;23.30;70.60;;;;;;5070572;28;43347;-70
2022/06/30 08:48:33;;;;;;;1.77;1.77;;;23.20;70.90;;;;;;5070865;28;43919;-71
2022/06/30 08:51:05;;;;;;;1.80;1.80;;;23.20;71.20;;;;;;5069804;28;43968;-70
2022/06/30 08:53:39;;;;;;;1.70;1.70;;;23.10;71.30;;;;;;5070171;28;44017;-70
2022/06/30 08:56:07;;;;;;;1.80;1.80;;;23.00;71.30;;;;;;5063512;28;43998;-70
2022/06/30 08:58:35;;;;;;;1.67;1.67;;;23.00;71.50;;;;;;5069965;28;43960;-71
2022/06/30 09:01:05;;;;;;;1.63;1.63;;;23.00;71.60;;;;;;5069848;28;45248;-70
2022/06/30 09:03:34;;;;;;;1.57;1.57;;;23.00;71.70;;;;;;5069565;28;43947;-70
2022/06/30 09:06:02;;;;;;;1.53;1.53;;;23.00;71.70;;;;;;5069977;28;43952;-71
2022/06/30 09:08:30;;;;;;;1.60;1.60;;;23.00;71.80;;;;;;5069882;28;44042;-71
2022/06/30 09:10:58;;;;;;;1.80;1.80;;;23.00;72.50;;;;;;5069923;28;44711;-70
2022/06/30 09:13:26;;;;;;;1.87;1.87;;;23.00;71.90;;;;;;5069946;28;43393;-70
2022/06/30 09:15:54;;;;;;;2.03;1.93;;;22.90;72.30;;;;;;5069760;28;43320;-71
2022/06/30 09:18:24;;;;;;;1.90;1.90;;;22.90;72.70;;;;;;5070216;28;44025;-71
2022/06/30 09:20:52;;;;;;;1.70;1.70;;;23.00;72.60;;;;;;5069595;28;43797;-71
2022/06/30 09:23:21;;;;;;;1.70;1.70;;;23.10;72.40;;;;;;5069585;28;43301;-70
2022/06/30 09:25:51;;;;;;;1.60;1.60;;;23.20;71.80;;;;;;5070263;28;43988;-71
2022/06/30 09:28:40;;;;;;;1.63;1.63;;;23.30;71.40;;;;;;5070550;28;43962;-71
2022/06/30 09:31:33;;;;;;;1.50;1.50;;;23.50;71.00;;;;;;5069842;28;45003;-71
2022/06/30 09:34:16;;;;;;;1.67;1.67;;;23.70;70.60;;;;;;5063642;28;43335;-70
2022/06/30 09:36:45;;;;;;;1.63;1.63;;;23.80;70.10;;;;;;5069390;28;43979;-70
2022/06/30 09:39:14;;;;;;;1.60;1.60;;;23.90;69.70;;;;;;5069729;28;44024;-70
2022/06/30 09:41:43;;;;;;;1.87;1.73;;;24.00;69.50;;;;;;5069432;28;43950;-71
2022/06/30 09:44:19;;;;;;;1.47;1.47;;;24.00;69.00;;;;;;5069113;28;43947;-71
2022/06/30 09:46:57;;;;;;;1.73;1.73;;;23.90;68.70;;;;;;5069238;28;43887;-70
2022/06/30 09:49:30;;;;;;;1.70;1.60;;;23.80;69.20;;;;;;5069592;28;43908;-71
2022/06/30 09:51:59;;;;;;;1.50;1.50;;;23.60;69.60;;;;;;5069360;28;43918;-72
2022/06/30 09:54:27;;;;;;;1.73;1.73;;;23.50;70.00;;;;;;5062503;28;43977;-71
2022/06/30 09:57:03;;;;;;;1.70;1.70;;;23.40;70.40;;;;;;5068968;28;43838;-71
2022/06/30 09:59:31;;;;;;;1.90;1.87;;;23.30;70.80;;;;;;5068699;28;43876;-71
2022/06/30 10:01:59;;;;;;;1.63;1.60;;;23.20;71.00;;;;;;5068477;28;43645;-71
2022/06/30 10:04:27;;;;;;;1.80;1.80;;;23.10;71.30;;;;;;5069128;28;44032;-70
2022/06/30 10:06:57;;;;;;;1.57;1.57;;;23.10;71.40;;;;;;5068445;28;43914;-71
2022/06/30 10:09:33;;;;;;;1.80;1.70;;;23.10;71.70;;;;;;5051097;28;43873;-70
2022/06/30 10:12:03;;;;;;;1.60;1.60;;;23.00;71.70;;;;;;5068541;28;43981;-70
2022/06/30 10:14:34;;;;;;;1.50;1.50;;;23.00;71.90;;;;;;5067830;28;43908;-71
2022/06/30 10:17:02;;;;;;;1.53;1.53;;;23.00;72.00;;;;;;5068363;28;43930;-71
2022/06/30 10:19:30;;;;;;;1.73;1.73;;;22.90;72.20;;;;;;5069059;28;43983;-70
2022/06/30 10:21:59;;;;;;;1.70;1.70;;;22.90;72.80;;;;;;5068571;28;43888;-70
2022/06/30 10:24:27;;;;;;;1.80;1.80;;;23.00;72.80;;;;;;5068218;28;43948;-70
2022/06/30 10:27:13;;;;;;;1.60;1.60;;;23.10;72.70;;;;;;5068702;28;44007;-70
2022/06/30 10:29:41;;;;;;;1.90;1.80;;;23.20;72.40;;;;;;5068842;28;43782;-70
2022/06/30 10:32:13;;;;;;;1.80;1.80;;;23.30;71.90;;;;;;5068416;28;44028;-70
2022/06/30 10:34:45;;;;;;;1.80;1.80;;;23.40;71.60;;;;;;5061580;28;43905;-71
2022/06/30 10:37:18;;;;;;;1.53;1.53;;;23.50;71.10;;;;;;5062428;28;43983;-71
2022/06/30 10:39:48;;;;;;;1.50;1.50;;;23.70;70.80;;;;;;5068748;28;43908;-69
2022/06/30 10:42:50;;;;;;;1.60;1.60;;;23.80;70.40;;;;;;5068254;28;43912;-70
2022/06/30 10:45:37;;;;;;;1.30;1.30;;;23.90;69.90;;;;;;4965564;28;45059;-70
2022/06/30 10:48:06;;;;;;;1.53;1.53;;;24.00;69.60;;;;;;4984574;28;43475;-70
2022/06/30 10:50:35;;;;;;;1.30;1.30;;;24.10;69.30;;;;;;5039131;28;44183;-71
2022/06/30 10:53:05;;;;;;;1.40;1.40;;;24.10;69.00;;;;;;5072186;28;44170;-71
2022/06/30 10:55:44;;;;;;;1.33;1.33;;;24.10;69.10;;;;;;5072118;28;43949;-71
2022/06/30 10:58:12;;;;;;;1.40;1.40;;;24.00;69.40;;;;;;5071584;28;43996;-71
2022/06/30 11:00:48;;;;;;;1.30;1.30;;;23.90;69.80;;;;;;5072327;28;43915;-71
2022/06/30 11:04:02;;;;;;;1.37;1.37;;;23.70;70.00;;;;;;5070406;28;43927;-70
2022/06/30 11:07:06;;;;;;;1.50;1.40;;;23.50;70.50;;;;;;5070473;28;43995;-69
2022/06/30 11:10:19;;;;;;;1.50;1.50;;;23.40;70.80;;;;;;5070138;28;43963;-71
2022/06/30 11:12:57;;;;;;;1.63;1.50;;;23.30;71.00;;;;;;5052253;28;43594;-71
2022/06/30 11:15:53;;;;;;;1.30;1.30;;;23.20;71.20;;;;;;5069997;28;43783;-71
2022/06/30 11:18:22;;;;;;;1.20;1.20;;;23.20;71.60;;;;;;5069936;28;43801;-71
2022/06/30 11:20:53;;;;;;;1.30;1.30;;;23.10;71.40;;;;;;5070175;28;44040;-70
2022/06/30 11:23:22;;;;;;;1.40;1.40;;;23.10;72.40;;;;;;5051852;28;43949;-71
2022/06/30 11:28:40;;;;;;;1.50;1.50;;;23.10;71.90;;;;;;5069517;28;43945;-70
2022/06/30 11:31:31;;;;;;;1.40;1.40;;;23.10;71.90;;;;;;5051310;28;43297;-70
2022/06/30 11:34:01;;;;;;;1.40;1.40;;;23.00;71.90;;;;;;5070234;28;43924;-71
2022/06/30 11:36:29;;;;;;;1.60;1.60;;;23.10;72.00;;;;;;5069667;28;43962;-70
2022/06/30 11:38:58;;;;;;;1.30;1.30;;;23.00;72.00;;;;;;5050903;28;44652;-70
2022/06/30 11:44:14;;;;;;;2.33;1.40;;;23.10;72.10;;;;;;5069755;28;43411;-70
2022/06/30 11:46:49;;;;;;;1.30;1.30;;;23.00;72.10;;;;;;5069396;28;44082;-71
2022/06/30 11:49:18;;;;;;;1.60;1.60;;;23.00;73.00;;;;;;5051685;28;44774;-70
2022/06/30 11:51:46;;;;;;;1.50;1.50;;;23.10;72.80;;;;;;5070037;28;43866;-70
2022/06/30 11:54:15;;;;;;;1.50;1.50;;;23.20;72.50;;;;;;5051841;28;43899;-70
2022/06/30 11:56:48;;;;;;;1.90;1.80;;;23.30;72.20;;;;;;5069154;28;43998;-71
2022/06/30 11:59:16;;;;;;;1.50;1.50;;;23.50;71.70;;;;;;5051487;28;44969;-70
2022/06/30 12:02:02;;;;;;;1.60;1.60;;;23.70;71.00;;;;;;5069632;28;43950;-71
2022/06/30 12:04:30;;;;;;;1.43;1.43;;;23.90;70.50;;;;;;5070731;28;43810;-70
2022/06/30 12:07:04;;;;;;;1.60;1.60;;;24.00;69.90;;;;;;5070167;28;43945;-69
2022/06/30 12:09:32;;;;;;;1.50;1.50;;;24.20;69.40;;;;;;5070215;28;44029;-71
2022/06/30 12:12:03;;;;;;;1.53;1.53;;;24.30;69.00;;;;;;5051847;28;44051;-70
2022/06/30 12:14:33;;;;;;;1.50;1.50;;;24.40;68.70;;;;;;5070967;28;43926;-70
2022/06/30 12:17:01;;;;;;;1.67;1.57;;;24.50;68.30;;;;;;5070729;28;43600;-71
2022/06/30 12:19:29;;;;;;;1.60;1.50;;;24.50;68.00;;;;;;5070478;28;43986;-70
2022/06/30 12:21:57;;;;;;;1.43;1.43;;;24.60;67.80;;;;;;5070537;28;43817;-70
2022/06/30 12:24:25;;;;;;;1.60;1.60;;;24.70;67.70;;;;;;5052550;28;44099;-69
2022/06/30 12:26:53;;;;;;;1.60;1.60;;;24.70;67.40;;;;;;5070318;28;43909;-71
2022/06/30 12:29:24;;;;;;;1.43;1.43;;;24.80;67.30;;;;;;5070776;28;43993;-71
2022/06/30 12:31:59;;;;;;;1.50;1.50;;;24.80;67.20;;;;;;5070062;28;44071;-70
2022/06/30 12:34:27;;;;;;;1.80;1.70;;;24.80;67.10;;;;;;5070465;28;43948;-71
2022/06/30 12:36:57;;;;;;;1.70;1.70;;;24.90;67.00;;;;;;5070174;28;43742;-70
2022/06/30 12:39:25;;;;;;;1.50;1.50;;;24.80;67.20;;;;;;5069727;28;43430;-71
2022/06/30 12:42:01;;;;;;;1.57;1.57;;;24.70;67.70;;;;;;5070503;28;44033;-70
2022/06/30 12:44:31;;;;;;;1.50;1.50;;;24.40;68.20;;;;;;5070497;28;44299;-71
2022/06/30 12:47:04;;;;;;;1.60;1.60;;;24.30;68.80;;;;;;5069889;28;44021;-70
2022/06/30 12:49:32;;;;;;;1.50;1.50;;;24.00;69.00;;;;;;5038490;28;45604;-70
2022/06/30 12:52:01;;;;;;;1.77;1.77;;;23.90;69.50;;;;;;5069400;28;44061;-70
2022/06/30 12:54:29;;;;;;;1.50;1.50;;;23.70;69.90;;;;;;5069627;28;43925;-70
2022/06/30 12:57:04;;;;;;;1.67;1.67;;;23.60;70.30;;;;;;5069160;28;43981;-70
2022/06/30 12:59:33;;;;;;;1.70;1.70;;;23.50;70.60;;;;;;5069399;28;43712;-70
2022/06/30 13:02:01;;;;;;;1.90;1.80;;;23.40;70.90;;;;;;5066785;28;43412;-71
2022/06/30 13:04:30;;;;;;;1.70;1.70;;;23.40;71.10;;;;;;5050924;28;43588;-70
2022/06/30 13:07:01;;;;;;;1.80;1.80;;;23.30;71.20;;;;;;5068576;28;43940;-71
2022/06/30 13:09:32;;;;;;;1.60;1.60;;;23.30;71.50;;;;;;5049757;28;44776;-70
2022/06/30 13:12:01;;;;;;;1.60;1.60;;;23.20;71.50;;;;;;5069371;28;43996;-71
2022/06/30 13:14:30;;;;;;;1.60;1.60;;;23.20;72.40;;;;;;5069595;28;43405;-70
2022/06/30 13:17:00;;;;;;;1.77;1.67;;;23.20;72.70;;;;;;5069708;28;43884;-70
2022/06/30 13:19:29;;;;;;;1.80;1.70;;;23.30;72.60;;;;;;5051372;28;43947;-70
2022/06/30 13:21:57;;;;;;;1.30;1.30;;;23.40;72.20;;;;;;5069410;28;43948;-70